Time;durP1;ratioP1;P1;durP2;ratioP2;P2;SDS_P1;SDS_P2;PMS_P1;PMS_P2;Temp;Humidity;BMP_temperature;BMP_pressure;BME280_temperature;BME280_humidity;BME280_pressure;Samples;Min_cycle;Max_cycle;Signal;HPM_P1;HPM_P2
2024/03/16 06:02:39;;;;;;;;;;;;;;;;;;4972678;23;19926;-42
2024/03/16 06:05:04;;;;;;;;;;;;;;;;;;4972171;28;19918;-44
2024/03/16 06:07:30;;;;;;;;;;;;;;;;;;4991541;28;20399;-43
2024/03/16 06:09:56;;;;;;;;;;;;;;;;;;4993013;28;19949;-41
2024/03/16 06:12:23;;;;;;;;;;;;;;;;;;4993196;28;19913;-41
2024/03/16 06:14:49;;;;;;;;;;;;;;;;;;4992026;28;19910;-41
2024/03/16 06:17:15;;;;;;;;;;;;;;;;;;4990724;28;20540;-41
2024/03/16 06:19:41;;;;;;;;;;;;;;;;;;4992703;28;19956;-42
2024/03/16 06:22:07;;;;;;;;;;;;;;;;;;4992773;28;19917;-42
2024/03/16 06:24:33;;;;;;;;;;;;;;;;;;4991452;28;20442;-44
2024/03/16 06:27:05;;;;;;;;;;;;;;;;;;4991916;28;20422;-43
2024/03/16 06:29:31;;;;;;;;;;;;;;;;;;4992618;28;19968;-43
2024/03/16 06:32:05;;;;;;;;;;;;;;;;;;4990720;28;20363;-42
2024/03/16 06:34:31;;;;;;;;;;;;;;;;;;4992665;28;19920;-43
2024/03/16 06:36:56;;;;;;;;;;;;;;;;;;4992730;28;20000;-43
2024/03/16 06:39:23;;;;;;;;;;;;;;;;;;4992526;28;20005;-43
2024/03/16 06:41:49;;;;;;;;;;;;;;;;;;4991618;28;19910;-43
2024/03/16 06:44:15;;;;;;;;;;;;;;;;;;4992582;28;19965;-42
2024/03/16 06:46:41;;;;;;;;;;;;;;;;;;4992693;28;19945;-42
2024/03/16 06:49:07;;;;;;;;;;;;;;;;;;4992293;28;19914;-42
2024/03/16 06:51:33;;;;;;;;;;;;;;;;;;4991535;28;19914;-45
2024/03/16 06:53:59;;;;;;;;;;;;;;;;;;4992346;28;19914;-43
2024/03/16 06:56:25;;;;;;;;;;;;;;;;;;4992069;28;19917;-44
2024/03/16 06:58:51;;;;;;;;;;;;;;;;;;4991977;28;19980;-43
2024/03/16 07:01:17;;;;;;;;;;;;;;;;;;4990559;28;20009;-42
2024/03/16 07:03:43;;;;;;;;;;;;;;;;;;4992277;28;20322;-42
2024/03/16 07:06:09;;;;;;;;;;;;;;;;;;4992480;28;20004;-42
2024/03/16 07:08:36;;;;;;;;;;;;;;;;;;4992162;28;19910;-47
2024/03/16 07:11:02;;;;;;;;;;;;;;;;;;4989853;28;19917;-45
2024/03/16 07:13:28;;;;;;;;;;;;;;;;;;4992023;28;19910;-44
2024/03/16 07:15:54;;;;;;;;;;;;;;;;;;4990545;28;19914;-44
2024/03/16 07:18:20;;;;;;;;;;;;;;;;;;4990864;28;19914;-43
2024/03/16 07:20:46;;;;;;;;;;;;;;;;;;4992000;28;19910;-43
2024/03/16 07:23:12;;;;;;;;;;;;;;;;;;4992196;28;19910;-44
2024/03/16 07:25:38;;;;;;;;;;;;;;;;;;4991932;28;20025;-46
2024/03/16 07:28:04;;;;;;;;;;;;;;;;;;4992122;28;19920;-44
2024/03/16 07:30:30;;;;;;;;;;;;;;;;;;4984873;28;20024;-42
2024/03/16 07:32:56;;;;;;;;;;;;;;;;;;4981705;28;20000;-44
2024/03/16 07:35:22;;;;;;;;;;;;;;;;;;4995873;28;19910;-42
2024/03/16 07:37:48;;;;;;;;;;;;;;;;;;4995975;28;19910;-43
2024/03/16 07:40:14;;;;;;;;;;;;;;;;;;4995206;28;19913;-44
2024/03/16 07:42:41;;;;;;;;;;;;;;;;;;4992027;28;19914;-42
2024/03/16 07:45:07;;;;;;;;;;;;;;;;;;4994975;28;19909;-44
2024/03/16 07:47:33;;;;;;;;;;;;;;;;;;4995447;28;19917;-42
2024/03/16 07:49:59;;;;;;;;;;;;;;;;;;4995478;28;19953;-42
2024/03/16 07:52:27;;;;;;;;;;;;;;;;;;4994374;28;19914;-42
2024/03/16 07:54:52;;;;;;;;;;;;;;;;;;4995682;28;19965;-43
2024/03/16 07:57:18;;;;;;;;;;;;;;;;;;4995716;28;19914;-43
2024/03/16 07:59:45;;;;;;;;;;;;;;;;;;4995864;28;19926;-42
2024/03/16 08:02:10;;;;;;;;;;;;;;;;;;4993861;28;20387;-43
2024/03/16 08:04:36;;;;;;;;;;;;;;;;;;4994102;28;19960;-43
2024/03/16 08:07:05;;;;;;;;;;;;;;;;;;4993240;28;19909;-43
2024/03/16 08:09:31;;;;;;;;;;;;;;;;;;4995319;28;19913;-43
2024/03/16 08:11:57;;;;;;;;;;;;;;;;;;4995065;28;19910;-43
2024/03/16 08:14:23;;;;;;;;;;;;;;;;;;4995129;28;19917;-43
2024/03/16 08:16:49;;;;;;;;;;;;;;;;;;4993660;28;20279;-43
2024/03/16 08:19:16;;;;;;;;;;;;;;;;;;4994058;28;19917;-42
2024/03/16 08:21:42;;;;;;;;;;;;;;;;;;4995198;28;19961;-42
2024/03/16 08:24:09;;;;;;;;;;;;;;;;;;4995274;28;19910;-42
2024/03/16 08:26:34;;;;;;;;;;;;;;;;;;4993273;28;19918;-43
2024/03/16 08:29:00;;;;;;;;;;;;;;;;;;4994957;28;20387;-44
2024/03/16 08:31:27;;;;;;;;;;;;;;;;;;4994922;28;19972;-43
2024/03/16 08:33:53;;;;;;;;;;;;;;;;;;4995053;28;19916;-43
2024/03/16 08:36:18;;;;;;;;;;;;;;;;;;4993318;28;19914;-42
2024/03/16 08:38:45;;;;;;;;;;;;;;;;;;4995040;28;20276;-44
2024/03/16 08:41:11;;;;;;;;;;;;;;;;;;4994709;28;19917;-43
2024/03/16 08:43:37;;;;;;;;;;;;;;;;;;4994280;28;19909;-44
2024/03/16 08:46:06;;;;;;;;;;;;;;;;;;4993288;28;20307;-43
2024/03/16 08:48:32;;;;;;;;;;;;;;;;;;4993503;28;20423;-44
2024/03/16 08:50:59;;;;;;;;;;;;;;;;;;4994491;28;19910;-42
2024/03/16 08:53:26;;;;;;;;;;;;;;;;;;4994560;28;19914;-46
2024/03/16 08:55:56;;;;;;;;;;;;;;;;;;4990993;28;19914;-43
2024/03/16 08:58:24;;;;;;;;;;;;;;;;;;4994433;28;19910;-43
2024/03/16 09:00:50;;;;;;;;;;;;;;;;;;4994295;28;19944;-44
2024/03/16 09:03:16;;;;;;;;;;;;;;;;;;4992232;28;20000;-46
2024/03/16 09:05:42;;;;;;;;;;;;;;;;;;4992804;28;19914;-45
2024/03/16 09:08:08;;;;;;;;;;;;;;;;;;4994391;28;19917;-43
2024/03/16 09:10:35;;;;;;;;;;;;;;;;;;4994007;28;19976;-48
2024/03/16 09:13:01;;;;;;;;;;;;;;;;;;4986687;28;20052;-43
2024/03/16 09:15:27;;;;;;;;;;;;;;;;;;4988633;28;20382;-45
2024/03/16 09:17:53;;;;;;;;;;;;;;;;;;4993849;28;19910;-45
2024/03/16 09:20:19;;;;;;;;;;;;;;;;;;4994315;28;20271;-45
2024/03/16 09:22:45;;;;;;;;;;;;;;;;;;4989324;28;19914;-43
2024/03/16 09:25:11;;;;;;;;;;;;;;;;;;4993963;28;19914;-43
2024/03/16 09:27:37;;;;;;;;;;;;;;;;;;4993709;28;20279;-45
2024/03/16 09:30:06;;;;;;;;;;;;;;;;;;4990054;28;19924;-43
2024/03/16 09:32:31;;;;;;;;;;;;;;;;;;4977634;28;19921;-42
2024/03/16 09:34:57;;;;;;;;;;;;;;;;;;4988219;28;19914;-43
2024/03/16 09:37:23;;;;;;;;;;;;;;;;;;4993534;28;20000;-47
2024/03/16 09:39:49;;;;;;;;;;;;;;;;;;4993926;28;19956;-44
2024/03/16 09:42:15;;;;;;;;;;;;;;;;;;4993634;28;19910;-45
2024/03/16 09:44:41;;;;;;;;;;;;;;;;;;4989856;28;20449;-42
2024/03/16 09:47:07;;;;;;;;;;;;;;;;;;4991166;28;20004;-47
2024/03/16 09:49:35;;;;;;;;;;;;;;;;;;4992454;28;19921;-43
2024/03/16 09:52:01;;;;;;;;;;;;;;;;;;4978622;28;19920;-45
2024/03/16 09:54:28;;;;;;;;;;;;;;;;;;4973699;28;20009;-44
2024/03/16 09:56:53;;;;;;;;;;;;;;;;;;4975595;28;19996;-44
2024/03/16 09:59:23;;;;;;;;;;;;;;;;;;4974213;28;20010;-46
2024/03/16 10:01:49;;;;;;;;;;;;;;;;;;4981261;28;19995;-47
2024/03/16 10:04:16;;;;;;;;;;;;;;;;;;4983773;28;19914;-44
2024/03/16 10:06:42;;;;;;;;;;;;;;;;;;4970219;28;19956;-46
2024/03/16 10:09:15;;;;;;;;;;;;;;;;;;4977376;28;19953;-44
2024/03/16 10:11:41;;;;;;;;;;;;;;;;;;4971205;28;20653;-47
2024/03/16 10:14:07;;;;;;;;;;;;;;;;;;4975695;28;19914;-45
2024/03/16 10:16:33;;;;;;;;;;;;;;;;;;4967912;28;19926;-43
2024/03/16 10:18:59;;;;;;;;;;;;;;;;;;4961706;28;20034;-45
2024/03/16 10:21:29;;;;;;;;;;;;;;;;;;4989511;28;19914;-43
2024/03/16 10:23:55;;;;;;;;;;;;;;;;;;4986035;28;19914;-44
2024/03/16 10:26:21;;;;;;;;;;;;;;;;;;4973858;28;20446;-47
2024/03/16 10:28:47;;;;;;;;;;;;;;;;;;4979234;28;19914;-43
2024/03/16 10:31:13;;;;;;;;;;;;;;;;;;4972644;28;19957;-45
2024/03/16 10:33:39;;;;;;;;;;;;;;;;;;4972512;28;19911;-44
2024/03/16 10:36:05;;;;;;;;;;;;;;;;;;4967254;28;19914;-44
2024/03/16 10:38:31;;;;;;;;;;;;;;;;;;4970911;28;19965;-43
2024/03/16 10:41:00;;;;;;;;;;;;;;;;;;4976637;28;20009;-42
2024/03/16 10:43:25;;;;;;;;;;;;;;;;;;4974144;28;19910;-45
2024/03/16 10:45:52;;;;;;;;;;;;;;;;;;4984020;28;20000;-48
2024/03/16 10:48:18;;;;;;;;;;;;;;;;;;4991230;28;19957;-45
2024/03/16 10:50:46;;;;;;;;;;;;;;;;;;4991287;28;19918;-43
2024/03/16 10:53:12;;;;;;;;;;;;;;;;;;4991600;28;19910;-43
2024/03/16 10:55:39;;;;;;;;;;;;;;;;;;4985014;28;19918;-44
2024/03/16 10:58:06;;;;;;;;;;;;;;;;;;4972293;28;19910;-43
2024/03/16 11:00:35;;;;;;;;;;;;;;;;;;4970673;28;19914;-43
2024/03/16 11:03:01;;;;;;;;;;;;;;;;;;4970536;28;19941;-45
2024/03/16 11:05:26;;;;;;;;;;;;;;;;;;4972710;28;20349;-42
2024/03/16 11:07:52;;;;;;;;;;;;;;;;;;4983393;28;19913;-42
2024/03/16 11:10:18;;;;;;;;;;;;;;;;;;4988305;28;19918;-43
2024/03/16 11:12:46;;;;;;;;;;;;;;;;;;4985990;28;19964;-42
2024/03/16 11:15:12;;;;;;;;;;;;;;;;;;4972542;28;19956;-42
2024/03/16 11:17:38;;;;;;;;;;;;;;;;;;4968336;28;19918;-43
2024/03/16 11:20:04;;;;;;;;;;;;;;;;;;4975943;28;20477;-43
2024/03/16 11:22:30;;;;;;;;;;;;;;;;;;4992053;28;20061;-42
2024/03/16 11:24:57;;;;;;;;;;;;;;;;;;4992331;28;20004;-43
2024/03/16 11:27:23;;;;;;;;;;;;;;;;;;4992148;28;20449;-42
2024/03/16 11:29:49;;;;;;;;;;;;;;;;;;4988388;28;19933;-42
2024/03/16 11:32:14;;;;;;;;;;;;;;;;;;4988632;28;19921;-43
2024/03/16 11:34:42;;;;;;;;;;;;;;;;;;4991802;28;19961;-43
2024/03/16 11:37:08;;;;;;;;;;;;;;;;;;4991835;28;19910;-43
2024/03/16 11:39:37;;;;;;;;;;;;;;;;;;4991646;28;20283;-44
2024/03/16 11:42:06;;;;;;;;;;;;;;;;;;4990078;28;20020;-42
2024/03/16 11:44:32;;;;;;;;;;;;;;;;;;4987174;28;19992;-44
2024/03/16 11:46:58;;;;;;;;;;;;;;;;;;4992033;28;20267;-44
2024/03/16 11:49:24;;;;;;;;;;;;;;;;;;4990997;28;19921;-42
2024/03/16 11:51:54;;;;;;;;;;;;;;;;;;4991583;28;19909;-44
2024/03/16 11:54:20;;;;;;;;;;;;;;;;;;4987996;28;19914;-43
2024/03/16 11:56:47;;;;;;;;;;;;;;;;;;4982494;28;19914;-42
2024/03/16 11:59:13;;;;;;;;;;;;;;;;;;4970565;28;19931;-44
2024/03/16 12:01:39;;;;;;;;;;;;;;;;;;4970541;28;19957;-43
2024/03/16 12:04:06;;;;;;;;;;;;;;;;;;4968573;28;20352;-42
2024/03/16 12:06:33;;;;;;;;;;;;;;;;;;4968906;28;20008;-43
2024/03/16 12:08:59;;;;;;;;;;;;;;;;;;4970226;28;19925;-43
2024/03/16 12:11:25;;;;;;;;;;;;;;;;;;4969110;28;19937;-43
2024/03/16 12:13:51;;;;;;;;;;;;;;;;;;4970759;28;20359;-43
2024/03/16 12:16:17;;;;;;;;;;;;;;;;;;4968613;28;20017;-43
2024/03/16 12:18:43;;;;;;;;;;;;;;;;;;4968796;28;20435;-43
2024/03/16 12:21:09;;;;;;;;;;;;;;;;;;4973147;28;20001;-43
2024/03/16 12:23:36;;;;;;;;;;;;;;;;;;4975483;28;19961;-43
2024/03/16 12:26:02;;;;;;;;;;;;;;;;;;4974543;28;19961;-43
2024/03/16 12:28:29;;;;;;;;;;;;;;;;;;4974137;28;19910;-43
2024/03/16 12:30:55;;;;;;;;;;;;;;;;;;4973737;28;20019;-44
2024/03/16 12:33:20;;;;;;;;;;;;;;;;;;4973491;28;20350;-44
2024/03/16 12:35:47;;;;;;;;;;;;;;;;;;4973608;28;19918;-43
2024/03/16 12:38:12;;;;;;;;;;;;;;;;;;4974276;28;20029;-44
2024/03/16 12:40:39;;;;;;;;;;;;;;;;;;4973939;28;20004;-43
2024/03/16 12:43:04;;;;;;;;;;;;;;;;;;4972783;28;19925;-42
2024/03/16 12:45:31;;;;;;;;;;;;;;;;;;4970990;28;19914;-43
2024/03/16 12:47:58;;;;;;;;;;;;;;;;;;4972708;28;19914;-42
2024/03/16 12:50:24;;;;;;;;;;;;;;;;;;4966175;28;19924;-43
2024/03/16 12:52:50;;;;;;;;;;;;;;;;;;4971143;28;20257;-43
2024/03/16 12:55:16;;;;;;;;;;;;;;;;;;4972993;28;19914;-43
2024/03/16 12:57:43;;;;;;;;;;;;;;;;;;4969383;28;19961;-43
2024/03/16 13:00:11;;;;;;;;;;;;;;;;;;4973619;28;20009;-42
2024/03/16 13:02:37;;;;;;;;;;;;;;;;;;4975896;28;19918;-43
2024/03/16 13:05:03;;;;;;;;;;;;;;;;;;4977458;28;19921;-44
2024/03/16 13:07:29;;;;;;;;;;;;;;;;;;4973337;28;19925;-42
2024/03/16 13:09:55;;;;;;;;;;;;;;;;;;4973368;28;19914;-42
2024/03/16 13:12:21;;;;;;;;;;;;;;;;;;4972466;28;19949;-43
2024/03/16 13:14:49;;;;;;;;;;;;;;;;;;4973134;28;20291;-42
2024/03/16 13:17:15;;;;;;;;;;;;;;;;;;4972884;28;19924;-42
2024/03/16 13:19:41;;;;;;;;;;;;;;;;;;4972790;28;19910;-43
2024/03/16 13:22:07;;;;;;;;;;;;;;;;;;4972856;28;19972;-43
2024/03/16 13:24:33;;;;;;;;;;;;;;;;;;4972534;28;20396;-45
2024/03/16 13:27:02;;;;;;;;;;;;;;;;;;4972807;28;20010;-44
2024/03/16 13:29:28;;;;;;;;;;;;;;;;;;4972696;28;19969;-43
2024/03/16 13:31:54;;;;;;;;;;;;;;;;;;4972936;28;19926;-42
2024/03/16 13:34:19;;;;;;;;;;;;;;;;;;4972830;28;19911;-44
2024/03/16 13:36:46;;;;;;;;;;;;;;;;;;4970732;28;20384;-44
2024/03/16 13:39:12;;;;;;;;;;;;;;;;;;4973820;28;20276;-42
2024/03/16 13:41:38;;;;;;;;;;;;;;;;;;4972383;28;19924;-43
2024/03/16 13:44:04;;;;;;;;;;;;;;;;;;4985035;28;20175;-47
2024/03/16 13:46:30;;;;;;;;;;;;;;;;;;4970921;28;19922;-44
2024/03/16 13:48:56;;;;;;;;;;;;;;;;;;4970931;28;19914;-44
2024/03/16 13:51:26;;;;;;;;;;;;;;;;;;4968861;28;19957;-46
2024/03/16 13:53:52;;;;;;;;;;;;;;;;;;4971425;28;19910;-44
2024/03/16 13:56:17;;;;;;;;;;;;;;;;;;4971068;28;20000;-43
2024/03/16 13:58:43;;;;;;;;;;;;;;;;;;4995885;28;19914;-42
2024/03/16 14:01:09;;;;;;;;;;;;;;;;;;4970646;28;19953;-44
2024/03/16 14:03:35;;;;;;;;;;;;;;;;;;4988743;28;19941;-42
2024/03/16 14:06:01;;;;;;;;;;;;;;;;;;4972939;28;19921;-43
2024/03/16 14:08:27;;;;;;;;;;;;;;;;;;4971797;28;19918;-44
2024/03/16 14:10:53;;;;;;;;;;;;;;;;;;4971920;28;19925;-44
2024/03/16 14:13:19;;;;;;;;;;;;;;;;;;4976303;28;20330;-44
2024/03/16 14:15:45;;;;;;;;;;;;;;;;;;4981470;28;19914;-44
2024/03/16 14:18:12;;;;;;;;;;;;;;;;;;4973008;28;20327;-44
2024/03/16 14:20:38;;;;;;;;;;;;;;;;;;4975885;28;19922;-44
2024/03/16 14:23:03;;;;;;;;;;;;;;;;;;4971151;28;19922;-43
2024/03/16 14:25:31;;;;;;;;;;;;;;;;;;4981333;28;20351;-45
2024/03/16 14:27:57;;;;;;;;;;;;;;;;;;4971030;28;20806;-44
2024/03/16 14:30:23;;;;;;;;;;;;;;;;;;4982157;28;19924;-43
2024/03/16 14:32:49;;;;;;;;;;;;;;;;;;4977015;28;19915;-45
2024/03/16 14:35:16;;;;;;;;;;;;;;;;;;4981082;28;19960;-43
2024/03/16 14:37:41;;;;;;;;;;;;;;;;;;4980197;28;20380;-46
2024/03/16 14:40:11;;;;;;;;;;;;;;;;;;4978719;28;19964;-46
2024/03/16 14:42:36;;;;;;;;;;;;;;;;;;4984494;28;20316;-43
2024/03/16 14:45:04;;;;;;;;;;;;;;;;;;4976155;28;19914;-46
2024/03/16 14:47:30;;;;;;;;;;;;;;;;;;4973684;28;19924;-48
2024/03/16 14:49:56;;;;;;;;;;;;;;;;;;4986195;28;20001;-45
2024/03/16 14:52:22;;;;;;;;;;;;;;;;;;4992007;28;19910;-43
2024/03/16 14:54:48;;;;;;;;;;;;;;;;;;4976081;28;19921;-46
2024/03/16 14:57:14;;;;;;;;;;;;;;;;;;4979290;28;19918;-45
2024/03/16 14:59:41;;;;;;;;;;;;;;;;;;4972057;28;19921;-43
2024/03/16 15:02:09;;;;;;;;;;;;;;;;;;4969444;28;19918;-43
2024/03/16 15:04:35;;;;;;;;;;;;;;;;;;4970416;28;19966;-44
2024/03/16 15:07:02;;;;;;;;;;;;;;;;;;4972386;28;19925;-43
2024/03/16 15:09:28;;;;;;;;;;;;;;;;;;4969697;28;19918;-43
2024/03/16 15:11:54;;;;;;;;;;;;;;;;;;4969781;28;20053;-43
2024/03/16 15:14:20;;;;;;;;;;;;;;;;;;4969388;28;20301;-43
2024/03/16 15:16:45;;;;;;;;;;;;;;;;;;4983692;28;20359;-43
2024/03/16 15:19:13;;;;;;;;;;;;;;;;;;4968666;28;19929;-43
2024/03/16 15:21:40;;;;;;;;;;;;;;;;;;4969350;28;19963;-43
2024/03/16 15:24:05;;;;;;;;;;;;;;;;;;4970206;28;20351;-43
2024/03/16 15:26:34;;;;;;;;;;;;;;;;;;4969132;28;19914;-43
2024/03/16 15:29:00;;;;;;;;;;;;;;;;;;4973114;28;19949;-44
2024/03/16 15:31:26;;;;;;;;;;;;;;;;;;4970702;28;19914;-43
2024/03/16 15:33:52;;;;;;;;;;;;;;;;;;4970045;28;19910;-46
2024/03/16 15:36:18;;;;;;;;;;;;;;;;;;4969003;28;19917;-43
2024/03/16 15:38:43;;;;;;;;;;;;;;;;;;4977008;28;20087;-44
2024/03/16 15:41:09;;;;;;;;;;;;;;;;;;4978469;28;20281;-47
2024/03/16 15:43:36;;;;;;;;;;;;;;;;;;4976307;28;19962;-42
2024/03/16 15:46:02;;;;;;;;;;;;;;;;;;4972817;28;20409;-43
2024/03/16 15:48:27;;;;;;;;;;;;;;;;;;4976500;28;20000;-43
2024/03/16 15:50:53;;;;;;;;;;;;;;;;;;4976376;28;19921;-43
2024/03/16 15:53:19;;;;;;;;;;;;;;;;;;4982006;28;19918;-43
2024/03/16 15:55:47;;;;;;;;;;;;;;;;;;4979536;28;20267;-45
2024/03/16 15:58:15;;;;;;;;;;;;;;;;;;4981415;28;19918;-44
2024/03/16 16:00:41;;;;;;;;;;;;;;;;;;4981877;28;20304;-45
2024/03/16 16:03:07;;;;;;;;;;;;;;;;;;4980286;28;19918;-44
2024/03/16 16:05:33;;;;;;;;;;;;;;;;;;4984355;28;19952;-47
2024/03/16 16:07:59;;;;;;;;;;;;;;;;;;4974356;28;19922;-43
2024/03/16 16:10:25;;;;;;;;;;;;;;;;;;4988775;28;19918;-44
2024/03/16 16:12:51;;;;;;;;;;;;;;;;;;4970951;28;19914;-42
2024/03/16 16:15:19;;;;;;;;;;;;;;;;;;4978442;28;19914;-42
2024/03/16 16:17:46;;;;;;;;;;;;;;;;;;4973117;28;19920;-42
2024/03/16 16:20:12;;;;;;;;;;;;;;;;;;4975775;28;19913;-42
2024/03/16 16:22:38;;;;;;;;;;;;;;;;;;4978259;28;19937;-43
2024/03/16 16:25:07;;;;;;;;;;;;;;;;;;4992461;28;20056;-43
2024/03/16 16:27:33;;;;;;;;;;;;;;;;;;4974818;28;19941;-42
2024/03/16 16:30:00;;;;;;;;;;;;;;;;;;4974715;28;19921;-42
2024/03/16 16:32:26;;;;;;;;;;;;;;;;;;4973612;28;19918;-43
2024/03/16 16:34:52;;;;;;;;;;;;;;;;;;4973001;28;19911;-42
2024/03/16 16:37:18;;;;;;;;;;;;;;;;;;4970754;28;19921;-42
2024/03/16 16:39:44;;;;;;;;;;;;;;;;;;4972021;28;19918;-43
2024/03/16 16:42:10;;;;;;;;;;;;;;;;;;4972404;28;20001;-42
2024/03/16 16:44:36;;;;;;;;;;;;;;;;;;4971744;28;19933;-42
2024/03/16 16:47:02;;;;;;;;;;;;;;;;;;4971839;28;19915;-42
2024/03/16 16:49:28;;;;;;;;;;;;;;;;;;4970372;28;19925;-42
2024/03/16 16:51:54;;;;;;;;;;;;;;;;;;4971696;28;19924;-42
2024/03/16 16:54:21;;;;;;;;;;;;;;;;;;4970705;28;19921;-44
2024/03/16 16:56:47;;;;;;;;;;;;;;;;;;4972341;28;19926;-44
2024/03/16 16:59:12;;;;;;;;;;;;;;;;;;4972159;28;20299;-42
2024/03/16 17:01:38;;;;;;;;;;;;;;;;;;4971463;28;19949;-43
2024/03/16 17:04:05;;;;;;;;;;;;;;;;;;4970696;28;20412;-44
2024/03/16 17:06:32;;;;;;;;;;;;;;;;;;4971244;28;19925;-44
2024/03/16 17:08:59;;;;;;;;;;;;;;;;;;4972066;28;19914;-43
2024/03/16 17:11:25;;;;;;;;;;;;;;;;;;4971201;28;19997;-42
2024/03/16 17:13:51;;;;;;;;;;;;;;;;;;4970117;28;20092;-44
2024/03/16 17:16:17;;;;;;;;;;;;;;;;;;4969940;28;19985;-44
2024/03/16 17:18:43;;;;;;;;;;;;;;;;;;4969335;28;19918;-42
2024/03/16 17:21:09;;;;;;;;;;;;;;;;;;4970202;28;20398;-42
2024/03/16 17:23:34;;;;;;;;;;;;;;;;;;4969827;28;19952;-42
2024/03/16 17:26:00;;;;;;;;;;;;;;;;;;4974833;28;19921;-42
2024/03/16 17:28:28;;;;;;;;;;;;;;;;;;4972543;28;19950;-42
2024/03/16 17:30:54;;;;;;;;;;;;;;;;;;4970763;28;19969;-42
2024/03/16 17:33:20;;;;;;;;;;;;;;;;;;4970024;28;19969;-42
2024/03/16 17:35:46;;;;;;;;;;;;;;;;;;4968814;28;19919;-43
2024/03/16 17:38:12;;;;;;;;;;;;;;;;;;4970896;28;19918;-42
2024/03/16 17:40:38;;;;;;;;;;;;;;;;;;4971949;28;19911;-42
2024/03/16 17:43:05;;;;;;;;;;;;;;;;;;4971325;28;19961;-46
2024/03/16 17:45:31;;;;;;;;;;;;;;;;;;4971244;28;19914;-44
2024/03/16 17:47:57;;;;;;;;;;;;;;;;;;4970685;28;19925;-43
2024/03/16 17:50:22;;;;;;;;;;;;;;;;;;4969128;28;20395;-42
2024/03/16 17:52:48;;;;;;;;;;;;;;;;;;4971240;28;19915;-45
2024/03/16 17:55:15;;;;;;;;;;;;;;;;;;4979762;28;19929;-43
2024/03/16 17:57:41;;;;;;;;;;;;;;;;;;4975790;28;20267;-42
2024/03/16 18:00:07;;;;;;;;;;;;;;;;;;4972081;28;19930;-45
2024/03/16 18:02:33;;;;;;;;;;;;;;;;;;4971553;28;19929;-44
2024/03/16 18:05:00;;;;;;;;;;;;;;;;;;4970720;28;19914;-45
2024/03/16 18:07:26;;;;;;;;;;;;;;;;;;4972171;28;19921;-42
2024/03/16 18:09:52;;;;;;;;;;;;;;;;;;4971043;28;20455;-45
2024/03/16 18:12:21;;;;;;;;;;;;;;;;;;4977746;28;20246;-45
2024/03/16 18:14:47;;;;;;;;;;;;;;;;;;4971433;28;19949;-43
2024/03/16 18:17:13;;;;;;;;;;;;;;;;;;4970838;28;19914;-46
2024/03/16 18:19:39;;;;;;;;;;;;;;;;;;4982471;28;19981;-43
2024/03/16 18:22:05;;;;;;;;;;;;;;;;;;4984470;28;19914;-43
2024/03/16 18:24:30;;;;;;;;;;;;;;;;;;4978471;28;19937;-46
2024/03/16 18:26:57;;;;;;;;;;;;;;;;;;4980390;28;19918;-46
2024/03/16 18:29:23;;;;;;;;;;;;;;;;;;4975652;28;19945;-42
2024/03/16 18:31:48;;;;;;;;;;;;;;;;;;4972717;28;19910;-44
2024/03/16 18:34:14;;;;;;;;;;;;;;;;;;4970596;28;19918;-44
2024/03/16 18:36:41;;;;;;;;;;;;;;;;;;4991870;28;19916;-43
2024/03/16 18:39:09;;;;;;;;;;;;;;;;;;4989022;28;19910;-42
2024/03/16 18:41:35;;;;;;;;;;;;;;;;;;4985904;28;19914;-44
2024/03/16 18:44:03;;;;;;;;;;;;;;;;;;4971451;28;19930;-42
2024/03/16 18:46:29;;;;;;;;;;;;;;;;;;4983525;28;20403;-42
2024/03/16 18:48:54;;;;;;;;;;;;;;;;;;4970472;28;19925;-43
2024/03/16 18:51:20;;;;;;;;;;;;;;;;;;4970689;28;19914;-42
2024/03/16 18:53:47;;;;;;;;;;;;;;;;;;4972503;28;19921;-43
2024/03/16 18:56:13;;;;;;;;;;;;;;;;;;4971324;28;19914;-43
2024/03/16 18:58:39;;;;;;;;;;;;;;;;;;4974704;28;19918;-44
2024/03/16 19:01:06;;;;;;;;;;;;;;;;;;4970777;28;19988;-43
2024/03/16 19:03:32;;;;;;;;;;;;;;;;;;4968432;28;19918;-42
2024/03/16 19:05:58;;;;;;;;;;;;;;;;;;4990609;28;20290;-43
2024/03/16 19:08:25;;;;;;;;;;;;;;;;;;4966801;28;19929;-45
2024/03/16 19:10:52;;;;;;;;;;;;;;;;;;4983053;28;19937;-43
2024/03/16 19:13:18;;;;;;;;;;;;;;;;;;4970440;28;19925;-42
2024/03/16 19:15:49;;;;;;;;;;;;;;;;;;4970412;28;19918;-43
2024/03/16 19:18:15;;;;;;;;;;;;;;;;;;4982533;28;20322;-42
2024/03/16 19:20:41;;;;;;;;;;;;;;;;;;4967977;28;19919;-43
2024/03/16 19:23:08;;;;;;;;;;;;;;;;;;4984162;28;19918;-42
2024/03/16 19:25:34;;;;;;;;;;;;;;;;;;4969641;28;20128;-42
2024/03/16 19:28:00;;;;;;;;;;;;;;;;;;4970732;28;19914;-42
2024/03/16 19:30:26;;;;;;;;;;;;;;;;;;4976542;28;20289;-43
2024/03/16 19:32:52;;;;;;;;;;;;;;;;;;4974143;28;19942;-42
2024/03/16 19:35:18;;;;;;;;;;;;;;;;;;4971068;28;19956;-42
2024/03/16 19:37:44;;;;;;;;;;;;;;;;;;4972161;28;19925;-43
2024/03/16 19:40:15;;;;;;;;;;;;;;;;;;4973506;28;19922;-42
2024/03/16 19:42:41;;;;;;;;;;;;;;;;;;4974109;28;20299;-43
2024/03/16 19:45:07;;;;;;;;;;;;;;;;;;4981129;28;20008;-42
2024/03/16 19:47:33;;;;;;;;;;;;;;;;;;4971245;28;20048;-42
2024/03/16 19:49:59;;;;;;;;;;;;;;;;;;4971011;28;19925;-41
2024/03/16 19:52:25;;;;;;;;;;;;;;;;;;4972863;28;20339;-43
2024/03/16 19:54:51;;;;;;;;;;;;;;;;;;4972092;28;20401;-42
2024/03/16 19:57:17;;;;;;;;;;;;;;;;;;4974965;28;19949;-43
2024/03/16 19:59:45;;;;;;;;;;;;;;;;;;4987569;28;19921;-43
2024/03/16 20:02:11;;;;;;;;;;;;;;;;;;4972516;28;19922;-43
2024/03/16 20:04:37;;;;;;;;;;;;;;;;;;4971599;28;19918;-41
2024/03/16 20:07:03;;;;;;;;;;;;;;;;;;4986320;28;20005;-42
2024/03/16 20:09:28;;;;;;;;;;;;;;;;;;4985363;28;19918;-44
2024/03/16 20:11:56;;;;;;;;;;;;;;;;;;4971383;28;20208;-43
2024/03/16 20:14:23;;;;;;;;;;;;;;;;;;4969740;28;20296;-43
2024/03/16 20:16:49;;;;;;;;;;;;;;;;;;4971036;28;20269;-44
2024/03/16 20:19:16;;;;;;;;;;;;;;;;;;4968828;28;19922;-42
2024/03/16 20:21:42;;;;;;;;;;;;;;;;;;4971384;28;19914;-42
2024/03/16 20:24:08;;;;;;;;;;;;;;;;;;4971405;28;20355;-43
2024/03/16 20:26:34;;;;;;;;;;;;;;;;;;4973772;28;20016;-43
2024/03/16 20:29:02;;;;;;;;;;;;;;;;;;4971237;28;19929;-45
2024/03/16 20:31:27;;;;;;;;;;;;;;;;;;4970864;28;20212;-43
2024/03/16 20:33:54;;;;;;;;;;;;;;;;;;4972567;28;19930;-43
2024/03/16 20:36:19;;;;;;;;;;;;;;;;;;4987403;28;20045;-44
2024/03/16 20:38:45;;;;;;;;;;;;;;;;;;4970451;28;19953;-42
2024/03/16 20:41:17;;;;;;;;;;;;;;;;;;4972671;28;19997;-43
2024/03/16 20:43:43;;;;;;;;;;;;;;;;;;4973335;28;20403;-41
2024/03/16 20:46:09;;;;;;;;;;;;;;;;;;4969215;28;19914;-43
2024/03/16 20:48:35;;;;;;;;;;;;;;;;;;4971737;28;20000;-44
2024/03/16 20:51:01;;;;;;;;;;;;;;;;;;4977076;28;19918;-43
2024/03/16 20:53:27;;;;;;;;;;;;;;;;;;4976280;28;20281;-44
2024/03/16 20:55:54;;;;;;;;;;;;;;;;;;4977462;28;20382;-42
2024/03/16 20:58:20;;;;;;;;;;;;;;;;;;4971798;28;19921;-46
2024/03/16 21:00:46;;;;;;;;;;;;;;;;;;4975108;28;19918;-42
2024/03/16 21:03:12;;;;;;;;;;;;;;;;;;4981808;28;19973;-43
2024/03/16 21:05:38;;;;;;;;;;;;;;;;;;4971400;28;19914;-43
2024/03/16 21:08:05;;;;;;;;;;;;;;;;;;4972270;28;20324;-42
2024/03/16 21:10:30;;;;;;;;;;;;;;;;;;4970761;28;19925;-43
2024/03/16 21:12:59;;;;;;;;;;;;;;;;;;4970121;28;20387;-42
2024/03/16 21:15:25;;;;;;;;;;;;;;;;;;4971596;28;19914;-42
2024/03/16 21:17:50;;;;;;;;;;;;;;;;;;4971436;28;19972;-43
2024/03/16 21:20:19;;;;;;;;;;;;;;;;;;4974618;28;19922;-42
2024/03/16 21:22:45;;;;;;;;;;;;;;;;;;4987374;28;19937;-44
2024/03/16 21:25:15;;;;;;;;;;;;;;;;;;4971904;28;20388;-42
2024/03/16 21:27:42;;;;;;;;;;;;;;;;;;4970004;28;19914;-43
2024/03/16 21:30:10;;;;;;;;;;;;;;;;;;4971694;28;19918;-44
2024/03/16 21:32:42;;;;;;;;;;;;;;;;;;4985414;28;19921;-42
2024/03/16 21:35:10;;;;;;;;;;;;;;;;;;4966058;28;19930;-42
2024/03/16 21:37:36;;;;;;;;;;;;;;;;;;4969035;28;19918;-43
2024/03/16 21:40:03;;;;;;;;;;;;;;;;;;4977213;28;19925;-41
2024/03/16 21:42:30;;;;;;;;;;;;;;;;;;4971900;28;19961;-42
2024/03/16 21:44:56;;;;;;;;;;;;;;;;;;4968605;28;19921;-42
2024/03/16 21:47:22;;;;;;;;;;;;;;;;;;4971641;28;19937;-44
2024/03/16 21:49:48;;;;;;;;;;;;;;;;;;4978182;28;19918;-42
2024/03/16 21:52:14;;;;;;;;;;;;;;;;;;4985266;28;19918;-42
2024/03/16 21:54:40;;;;;;;;;;;;;;;;;;4970517;28;19993;-42
2024/03/16 21:57:06;;;;;;;;;;;;;;;;;;4971031;28;19957;-43
2024/03/16 21:59:32;;;;;;;;;;;;;;;;;;4968058;28;19996;-43
2024/03/16 22:01:58;;;;;;;;;;;;;;;;;;4968239;28;19918;-42
2024/03/16 22:04:24;;;;;;;;;;;;;;;;;;4977982;28;19918;-44
2024/03/16 22:06:52;;;;;;;;;;;;;;;;;;4986669;28;20000;-43
2024/03/16 22:09:18;;;;;;;;;;;;;;;;;;4972527;28;20009;-43
2024/03/16 22:11:44;;;;;;;;;;;;;;;;;;4969419;28;20017;-44
2024/03/16 22:14:10;;;;;;;;;;;;;;;;;;4971018;28;20284;-43
2024/03/16 22:16:36;;;;;;;;;;;;;;;;;;4971764;28;19961;-43
2024/03/16 22:19:02;;;;;;;;;;;;;;;;;;4973573;28;19910;-42
2024/03/16 22:21:28;;;;;;;;;;;;;;;;;;4970142;28;20344;-43
2024/03/16 22:23:54;;;;;;;;;;;;;;;;;;4986384;28;19917;-42
2024/03/16 22:26:20;;;;;;;;;;;;;;;;;;4992714;28;20375;-44
2024/03/16 22:28:46;;;;;;;;;;;;;;;;;;4988297;28;19914;-41
2024/03/16 22:31:12;;;;;;;;;;;;;;;;;;4992681;28;20345;-43
2024/03/16 22:33:38;;;;;;;;;;;;;;;;;;4992739;28;19957;-42
2024/03/16 22:36:08;;;;;;;;;;;;;;;;;;4992819;28;19936;-42
2024/03/16 22:38:34;;;;;;;;;;;;;;;;;;4991703;28;19914;-43
2024/03/16 22:41:00;;;;;;;;;;;;;;;;;;4992512;28;19910;-42